createdAt,value
2022-10-13T00:00:29.098Z,21.73
2022-10-13T00:02:55.695Z,22.17
2022-10-13T00:05:22.286Z,17.27
2022-10-13T00:07:48.888Z,22.53
2022-10-13T00:10:15.603Z,23.73
2022-10-13T00:12:42.172Z,27.87
2022-10-13T00:15:09.893Z,22.73
2022-10-13T00:17:37.188Z,35.40
2022-10-13T00:20:04.221Z,23.40
2022-10-13T00:22:30.979Z,26.70
2022-10-13T00:24:57.641Z,22.93
2022-10-13T00:27:24.316Z,32.37
2022-10-13T00:29:50.997Z,23.50
2022-10-13T00:32:17.905Z,22.40
2022-10-13T00:34:45.512Z,22.50
2022-10-13T00:37:12.134Z,32.73
2022-10-13T00:39:38.883Z,25.73
2022-10-13T00:42:07.271Z,28.10
2022-10-13T00:44:58.651Z,23.00
2022-10-13T00:47:28.154Z,31.80
2022-10-13T00:49:56.299Z,22.63
2022-10-13T00:52:27.365Z,25.83
2022-10-13T00:54:55.310Z,21.47
2022-10-13T00:57:22.614Z,31.00
2022-10-13T00:59:49.530Z,28.30
2022-10-13T01:02:16.925Z,21.93
2022-10-13T01:04:46.725Z,30.83
2022-10-13T01:07:15.780Z,18.23
2022-10-13T01:09:42.521Z,29.60
2022-10-13T01:12:14.552Z,32.77
2022-10-13T01:14:47.957Z,24.30
2022-10-13T01:17:26.068Z,35.40
2022-10-13T01:20:33.624Z,19.23
2022-10-13T01:23:22.924Z,23.53
2022-10-13T01:26:13.592Z,21.50
2022-10-13T01:28:58.851Z,28.90
2022-10-13T01:31:32.009Z,28.87
2022-10-13T01:34:08.800Z,24.77
2022-10-13T01:36:41.440Z,20.23
2022-10-13T01:39:17.388Z,20.03
2022-10-13T01:41:49.320Z,23.10
2022-10-13T01:44:21.343Z,21.63
2022-10-13T01:46:51.251Z,19.07
2022-10-13T01:49:21.567Z,35.70
2022-10-13T01:51:49.495Z,18.30
2022-10-13T01:54:16.102Z,28.67
2022-10-13T01:56:50.885Z,26.63
2022-10-13T01:59:17.570Z,37.53
2022-10-13T02:01:53.889Z,25.37
2022-10-13T02:04:29.749Z,27.50
2022-10-13T02:07:00.991Z,27.47
2022-10-13T02:09:34.230Z,30.30
2022-10-13T02:12:06.927Z,20.83
2022-10-13T02:14:37.877Z,26.13
2022-10-13T02:17:05.739Z,21.97
2022-10-13T02:19:36.141Z,21.70
2022-10-13T02:22:03.470Z,30.13
2022-10-13T02:24:30.014Z,28.80
2022-10-13T02:26:57.110Z,28.80
2022-10-13T02:29:23.782Z,21.73
2022-10-13T02:31:50.338Z,22.93
2022-10-13T02:34:17.526Z,36.33
2022-10-13T02:36:44.131Z,17.53
2022-10-13T02:39:11.260Z,15.07
2022-10-13T02:41:37.946Z,20.97
2022-10-13T02:44:04.882Z,27.67
2022-10-13T02:46:31.933Z,32.53
2022-10-13T02:48:58.479Z,24.03
2022-10-13T02:51:26.064Z,35.00
2022-10-13T02:53:52.673Z,25.30
2022-10-13T02:56:19.380Z,28.10
2022-10-13T02:58:45.987Z,25.07
2022-10-13T03:01:14.587Z,22.33
2022-10-13T03:03:41.605Z,21.03
2022-10-13T03:06:08.578Z,26.83
2022-10-13T03:08:36.369Z,33.03
2022-10-13T03:11:02.990Z,27.73
2022-10-13T03:13:29.602Z,33.00
2022-10-13T03:15:56.174Z,32.27
2022-10-13T03:18:22.932Z,23.73
2022-10-13T03:20:56.805Z,26.57
2022-10-13T03:23:23.464Z,26.67
2022-10-13T03:25:50.681Z,21.23
2022-10-13T03:28:17.321Z,34.53
2022-10-13T03:30:43.978Z,34.17
2022-10-13T03:33:10.628Z,25.23
2022-10-13T03:35:37.513Z,29.17
2022-10-13T03:38:04.126Z,20.60
2022-10-13T03:40:31.049Z,28.83
2022-10-13T03:42:58.325Z,21.50
2022-10-13T03:45:25.004Z,32.37
2022-10-13T03:47:51.571Z,23.73
2022-10-13T03:50:18.290Z,28.87
2022-10-13T03:52:44.909Z,33.50
2022-10-13T03:55:11.507Z,32.57
2022-10-13T03:57:38.103Z,33.40
2022-10-13T04:00:10.016Z,17.30
2022-10-13T04:02:36.581Z,29.33
2022-10-13T04:05:03.589Z,21.43
2022-10-13T04:07:30.194Z,24.87
2022-10-13T04:09:56.705Z,27.73
2022-10-13T04:12:23.652Z,22.10
2022-10-13T04:14:50.445Z,34.90
2022-10-13T04:17:17.673Z,22.47
2022-10-13T04:19:44.412Z,28.40
2022-10-13T04:22:10.943Z,28.27
2022-10-13T04:24:37.489Z,27.10
2022-10-13T04:27:04.149Z,28.63
2022-10-13T04:29:30.990Z,18.63
2022-10-13T04:31:59.368Z,37.23
2022-10-13T04:34:26.594Z,44.17
2022-10-13T04:36:53.225Z,22.10
2022-10-13T04:39:19.809Z,30.63
2022-10-13T04:41:46.398Z,36.97
2022-10-13T04:44:12.962Z,22.90
2022-10-13T04:46:39.555Z,29.00
2022-10-13T04:49:06.289Z,29.33
2022-10-13T04:51:33.559Z,20.87
2022-10-13T04:54:01.274Z,34.83
2022-10-13T04:56:28.602Z,24.60
2022-10-13T04:58:55.351Z,27.73
2022-10-13T05:01:24.221Z,34.30
2022-10-13T05:03:52.074Z,27.90
2022-10-13T05:06:20.992Z,21.33
2022-10-13T05:08:48.573Z,18.33
2022-10-13T05:11:16.572Z,30.67
2022-10-13T05:13:43.337Z,21.67
2022-10-13T05:16:12.000Z,28.00
2022-10-13T05:18:39.060Z,25.63
2022-10-13T05:21:09.694Z,25.90
2022-10-13T05:23:36.416Z,23.83
2022-10-13T05:26:04.673Z,24.70
2022-10-13T05:28:31.591Z,26.40
2022-10-13T05:31:07.934Z,24.63
2022-10-13T05:33:34.502Z,34.80
2022-10-13T05:36:04.143Z,24.27
2022-10-13T05:38:30.714Z,29.27
2022-10-13T05:41:02.027Z,29.03
2022-10-13T05:43:30.496Z,34.33
2022-10-13T05:45:57.184Z,45.10
2022-10-13T05:48:23.715Z,36.53
2022-10-13T05:50:50.401Z,37.67
2022-10-13T05:53:17.492Z,32.17
2022-10-13T05:55:44.412Z,31.30
2022-10-13T05:58:11.323Z,30.50
2022-10-13T06:00:41.466Z,26.77
2022-10-13T06:03:10.637Z,30.87
2022-10-13T06:05:37.562Z,41.83
2022-10-13T06:08:04.493Z,31.13
2022-10-13T06:10:31.268Z,25.37
2022-10-13T06:12:57.808Z,22.63
2022-10-13T06:15:27.989Z,45.27
2022-10-13T06:17:55.591Z,41.33
2022-10-13T06:20:22.256Z,37.50
2022-10-13T06:22:50.230Z,36.10
2022-10-13T06:25:17.226Z,31.80
2022-10-13T06:27:43.992Z,29.27
2022-10-13T06:30:11.072Z,36.03
2022-10-13T06:32:37.680Z,38.80
2022-10-13T06:35:06.787Z,25.73
2022-10-13T06:37:33.326Z,38.87
2022-10-13T06:40:00.035Z,26.53
2022-10-13T06:42:30.178Z,29.70
2022-10-13T06:44:56.944Z,42.93
2022-10-13T06:47:23.694Z,52.93
2022-10-13T06:49:50.576Z,31.07
2022-10-13T06:52:18.393Z,40.83
2022-10-13T06:54:45.135Z,40.00
2022-10-13T06:57:12.236Z,34.80
2022-10-13T06:59:39.408Z,44.40
2022-10-13T07:02:06.411Z,31.57
2022-10-13T07:04:33.177Z,37.80
2022-10-13T07:06:59.768Z,30.30
2022-10-13T07:09:27.179Z,39.27
2022-10-13T07:11:53.852Z,40.60
2022-10-13T07:14:20.446Z,40.47
2022-10-13T07:16:47.661Z,35.13
2022-10-13T07:19:14.224Z,48.00
2022-10-13T07:21:40.842Z,37.03
2022-10-13T07:24:09.280Z,50.47
2022-10-13T07:26:36.484Z,36.07
2022-10-13T07:29:03.429Z,38.40
2022-10-13T07:31:29.977Z,39.50
2022-10-13T07:33:59.690Z,40.37
2022-10-13T07:36:26.809Z,27.60
2022-10-13T07:38:53.741Z,35.20
2022-10-13T07:41:20.380Z,38.00
2022-10-13T07:43:47.620Z,52.27
2022-10-13T07:46:14.819Z,31.83
2022-10-13T07:48:41.708Z,36.00
2022-10-13T07:51:09.928Z,39.23
2022-10-13T07:53:36.699Z,36.17
2022-10-13T07:56:05.488Z,29.60
2022-10-13T07:58:32.448Z,41.60
2022-10-13T08:01:02.111Z,29.77
2022-10-13T08:03:32.347Z,33.07
2022-10-13T08:05:59.859Z,38.10
2022-10-13T08:08:26.955Z,28.10
2022-10-13T08:13:25.181Z,31.83
2022-10-13T08:15:52.139Z,46.30
2022-10-13T08:18:19.663Z,39.27
2022-10-13T08:20:46.455Z,31.27
2022-10-13T08:23:13.573Z,25.57
2022-10-13T08:25:41.427Z,40.10
2022-10-13T08:28:18.348Z,38.33
2022-10-13T08:30:45.189Z,32.27
2022-10-13T08:33:12.448Z,27.57
2022-10-13T08:35:41.057Z,31.30
2022-10-13T08:38:07.922Z,33.43
2022-10-13T08:40:34.898Z,35.67
2022-10-13T08:43:06.022Z,36.67
2022-10-13T08:45:41.648Z,34.40
2022-10-13T08:48:14.021Z,34.80
2022-10-13T08:50:44.307Z,38.03
2022-10-13T08:53:16.183Z,38.77
2022-10-13T08:55:45.149Z,26.47
2022-10-13T08:58:18.540Z,29.87
2022-10-13T09:00:45.220Z,37.50
2022-10-13T09:03:22.338Z,35.53
2022-10-13T09:06:00.569Z,48.90
2022-10-13T09:08:32.669Z,30.50
2022-10-13T09:10:59.308Z,35.93
2022-10-13T09:13:26.473Z,36.60
2022-10-13T09:15:53.381Z,37.30
2022-10-13T09:18:28.701Z,37.47
2022-10-13T09:21:10.226Z,33.87
2022-10-13T09:23:39.617Z,35.43
2022-10-13T09:26:19.045Z,34.47
2022-10-13T09:28:45.852Z,38.43
2022-10-13T09:31:19.137Z,41.83
2022-10-13T09:33:50.550Z,34.67
2022-10-13T09:36:17.774Z,35.13
2022-10-13T09:39:05.719Z,27.83
2022-10-13T09:41:33.794Z,39.57
2022-10-13T09:44:08.832Z,44.23
2022-10-13T09:46:39.272Z,36.73
2022-10-13T09:49:19.254Z,40.10
2022-10-13T09:51:47.247Z,39.43
2022-10-13T09:54:26.697Z,41.67
2022-10-13T09:56:56.361Z,42.10
2022-10-13T09:59:32.499Z,35.27
2022-10-13T10:02:03.414Z,32.73
2022-10-13T10:04:35.565Z,35.17
2022-10-13T10:07:11.243Z,30.17
2022-10-13T10:09:45.353Z,30.70
2022-10-13T10:12:16.379Z,35.03
2022-10-13T10:14:43.085Z,29.70
2022-10-13T10:17:18.044Z,38.80
2022-10-13T10:19:56.733Z,47.50
2022-10-13T10:22:34.441Z,37.27
2022-10-13T10:25:12.385Z,29.93
2022-10-13T10:27:43.831Z,31.43
2022-10-13T10:30:16.004Z,29.00
2022-10-13T10:32:50.347Z,26.77
2022-10-13T10:35:22.567Z,35.70
2022-10-13T10:38:05.082Z,38.10
2022-10-13T10:40:37.601Z,32.97
2022-10-13T10:43:36.342Z,38.07
2022-10-13T10:46:05.594Z,34.40
2022-10-13T10:48:37.059Z,51.47
2022-10-13T10:51:07.397Z,48.60
2022-10-13T10:53:39.747Z,39.80
2022-10-13T10:56:15.676Z,35.03
2022-10-13T10:58:49.324Z,31.63
2022-10-13T11:01:28.157Z,48.80
2022-10-13T11:04:00.981Z,36.67
2022-10-13T11:06:35.239Z,42.53
2022-10-13T11:09:07.119Z,43.50
2022-10-13T11:11:42.920Z,37.83
2022-10-13T11:14:26.379Z,42.30
2022-10-13T11:17:19.438Z,36.00
2022-10-13T11:19:48.753Z,32.20
2022-10-13T11:22:22.167Z,50.83
2022-10-13T11:24:56.561Z,37.23
2022-10-13T11:27:44.221Z,39.07
2022-10-13T11:30:40.705Z,45.60
2022-10-13T11:33:48.854Z,65.83
2022-10-13T11:36:39.045Z,42.80
2022-10-13T11:39:42.001Z,41.43
2022-10-13T11:42:29.536Z,35.63
2022-10-13T11:44:59.055Z,38.70
2022-10-13T11:47:55.965Z,36.70
2022-10-13T11:50:29.104Z,42.00
2022-10-13T11:53:11.206Z,39.00
2022-10-13T11:55:45.403Z,40.73
2022-10-13T11:58:16.509Z,61.70
2022-10-13T12:00:54.626Z,34.70
2022-10-13T12:03:23.586Z,30.87
2022-10-13T12:05:51.245Z,46.20
2022-10-13T12:08:19.518Z,34.40
2022-10-13T12:10:50.999Z,44.27
2022-10-13T12:13:23.914Z,32.13
2022-10-13T12:15:59.376Z,37.00
2022-10-13T12:18:29.294Z,35.90
2022-10-13T12:20:58.285Z,34.67
2022-10-13T12:23:26.147Z,37.63
2022-10-13T12:25:57.730Z,33.03
2022-10-13T12:28:27.582Z,30.60
2022-10-13T12:30:57.122Z,25.73
2022-10-13T12:33:28.160Z,43.23
2022-10-13T12:35:55.022Z,22.47
2022-10-13T12:38:22.688Z,38.83
2022-10-13T12:40:51.208Z,34.67
2022-10-13T12:43:21.720Z,70.10
2022-10-13T12:45:49.055Z,24.37
2022-10-13T12:48:34.970Z,23.63
2022-10-13T12:51:14.561Z,31.57
2022-10-13T12:53:41.606Z,34.47
2022-10-13T12:56:23.061Z,25.00
2022-10-13T12:58:49.766Z,32.80
2022-10-13T13:01:27.563Z,42.27
2022-10-13T13:03:57.389Z,31.90
2022-10-13T13:06:32.482Z,31.53
2022-10-13T13:09:24.013Z,26.87
2022-10-13T13:12:05.316Z,30.70
2022-10-13T13:14:37.334Z,30.17
2022-10-13T13:17:11.851Z,24.23
2022-10-13T13:19:40.167Z,26.73
2022-10-13T13:22:07.102Z,32.80
2022-10-13T13:24:41.382Z,25.93
2022-10-13T13:27:16.887Z,25.63
2022-10-13T13:29:53.962Z,29.47
2022-10-13T13:32:23.308Z,30.47
2022-10-13T13:34:50.394Z,26.27
2022-10-13T13:37:25.150Z,31.07
2022-10-13T13:39:52.409Z,35.43
2022-10-13T13:42:21.057Z,23.63
2022-10-13T13:44:47.965Z,21.90
2022-10-13T13:47:20.394Z,22.20
2022-10-13T13:49:49.722Z,42.63
2022-10-13T13:52:17.218Z,34.27
2022-10-13T13:54:48.525Z,27.87
2022-10-13T13:57:26.412Z,24.10
2022-10-13T13:59:55.799Z,32.47
2022-10-13T14:02:22.519Z,37.33
2022-10-13T14:04:50.185Z,35.27
2022-10-13T14:07:18.170Z,31.37
2022-10-13T14:09:45.383Z,29.73
2022-10-13T14:12:12.418Z,25.50
2022-10-13T14:14:39.702Z,22.10
2022-10-13T14:17:06.673Z,30.10
2022-10-13T14:19:33.872Z,33.40
2022-10-13T14:22:03.699Z,27.03
2022-10-13T14:24:34.403Z,32.37
2022-10-13T14:27:01.489Z,29.07
2022-10-13T14:29:28.573Z,24.30
2022-10-13T14:31:55.375Z,27.10
2022-10-13T14:34:22.477Z,26.10
2022-10-13T14:36:49.352Z,28.57
2022-10-13T14:39:17.539Z,30.77
2022-10-13T14:41:44.845Z,41.60
2022-10-13T14:44:13.069Z,37.73
2022-10-13T14:46:40.363Z,32.57
2022-10-13T14:49:07.104Z,36.73
2022-10-13T14:51:34.828Z,26.20
2022-10-13T14:54:03.379Z,33.63
2022-10-13T14:56:31.082Z,27.13
2022-10-13T14:58:59.847Z,32.63
2022-10-13T15:01:27.072Z,25.37
2022-10-13T15:03:54.076Z,27.80
2022-10-13T15:06:22.647Z,31.20
2022-10-13T15:08:50.254Z,31.03
2022-10-13T15:11:19.013Z,31.77
2022-10-13T15:13:46.836Z,35.83
2022-10-13T15:16:17.555Z,29.77
2022-10-13T15:18:44.491Z,33.03
2022-10-13T15:21:12.117Z,27.57
2022-10-13T15:23:39.266Z,37.03
2022-10-13T15:26:06.568Z,27.97
2022-10-13T15:28:36.345Z,29.20
2022-10-13T15:31:04.569Z,32.60
2022-10-13T15:33:31.633Z,33.53
2022-10-13T15:35:58.656Z,39.50
2022-10-13T15:38:25.535Z,43.50
2022-10-13T15:40:52.420Z,29.07
2022-10-13T15:43:19.193Z,30.73
2022-10-13T15:45:54.228Z,35.93
2022-10-13T15:48:21.505Z,36.33
2022-10-13T15:50:48.184Z,32.70
2022-10-13T15:53:15.139Z,26.97
2022-10-13T15:55:41.710Z,42.33
2022-10-13T15:58:13.560Z,39.00
2022-10-13T16:00:41.287Z,53.20
2022-10-13T16:03:11.946Z,37.90
2022-10-13T16:05:41.087Z,32.40
2022-10-13T16:08:08.407Z,41.17
2022-10-13T16:10:34.970Z,32.23
2022-10-13T16:13:01.565Z,42.40
2022-10-13T16:15:28.461Z,36.70
2022-10-13T16:17:55.034Z,37.83
2022-10-13T16:20:21.594Z,27.47
2022-10-13T16:22:49.011Z,43.87
2022-10-13T16:25:15.686Z,47.10
2022-10-13T16:27:44.525Z,47.80
2022-10-13T16:30:11.970Z,44.97
2022-10-13T16:32:39.301Z,41.67
2022-10-13T16:35:06.804Z,34.70
2022-10-13T16:37:33.768Z,34.33
2022-10-13T16:40:01.149Z,43.30
2022-10-13T16:42:27.728Z,37.40
2022-10-13T16:44:54.268Z,48.50
2022-10-13T16:47:21.897Z,37.47
2022-10-13T16:49:48.640Z,50.17
2022-10-13T16:52:15.252Z,40.37
2022-10-13T16:54:41.820Z,70.63
2022-10-13T16:57:09.337Z,57.80
2022-10-13T16:59:35.903Z,57.03
2022-10-13T17:02:02.458Z,70.83
2022-10-13T17:04:30.500Z,60.60
2022-10-13T17:06:57.245Z,61.60
2022-10-13T17:09:23.865Z,58.13
2022-10-13T17:11:50.457Z,43.50
2022-10-13T17:14:17.740Z,51.10
2022-10-13T17:16:44.484Z,60.57
2022-10-13T17:19:11.042Z,49.90
2022-10-13T17:21:37.655Z,50.03
2022-10-13T17:24:04.500Z,50.63
2022-10-13T17:26:31.177Z,50.30
2022-10-13T17:28:57.836Z,49.27
2022-10-13T17:31:25.329Z,40.73
2022-10-13T17:33:52.549Z,117.20
2022-10-13T17:36:21.513Z,191.17
2022-10-13T17:38:48.919Z,237.80
2022-10-13T17:41:15.750Z,144.33
2022-10-13T17:43:43.559Z,100.70
2022-10-13T17:46:35.186Z,57.07
2022-10-13T17:49:00.174Z,55.13
2022-10-13T17:51:27.104Z,79.17
2022-10-13T17:53:54.597Z,57.90
2022-10-13T17:56:23.138Z,52.37
2022-10-13T17:58:50.901Z,56.67
2022-10-13T18:01:23.318Z,51.40
2022-10-13T18:03:52.175Z,63.73
2022-10-13T18:06:21.444Z,76.53
2022-10-13T18:08:48.191Z,57.67
2022-10-13T18:11:17.179Z,53.30
2022-10-13T18:13:45.110Z,55.13
2022-10-13T18:16:14.267Z,62.43
2022-10-13T18:18:41.088Z,50.30
2022-10-13T18:21:08.054Z,54.10
2022-10-13T18:23:36.453Z,60.63
2022-10-13T18:26:05.078Z,48.87
2022-10-13T18:28:32.744Z,53.33
2022-10-13T18:31:04.133Z,59.17
2022-10-13T18:33:30.848Z,53.70
2022-10-13T18:35:57.760Z,48.50
2022-10-13T18:38:24.839Z,56.77
2022-10-13T18:40:52.169Z,54.53
2022-10-13T18:43:19.067Z,52.40
2022-10-13T18:45:45.835Z,53.83
2022-10-13T18:48:12.734Z,53.00
2022-10-13T18:50:42.184Z,49.60
2022-10-13T18:53:08.811Z,61.07
2022-10-13T18:55:35.791Z,57.60
2022-10-13T18:58:03.637Z,52.50
2022-10-13T19:00:30.286Z,52.27
2022-10-13T19:02:56.989Z,53.47
2022-10-13T19:05:23.614Z,65.97
2022-10-13T19:07:50.404Z,62.03
2022-10-13T19:10:19.667Z,64.10
2022-10-13T19:13:02.843Z,47.47
2022-10-13T19:15:30.775Z,70.47
2022-10-13T19:17:57.376Z,61.03
2022-10-13T19:20:24.483Z,65.23
2022-10-13T19:22:51.308Z,61.10
2022-10-13T19:25:20.365Z,61.47
2022-10-13T19:27:47.260Z,54.97
2022-10-13T19:30:15.556Z,61.63
2022-10-13T19:32:42.904Z,56.47
2022-10-13T19:35:09.670Z,56.20
2022-10-13T19:37:36.658Z,51.33
2022-10-13T19:40:04.870Z,60.00
2022-10-13T19:42:31.895Z,54.60
2022-10-13T19:45:00.346Z,56.20
2022-10-13T19:47:27.471Z,51.37
2022-10-13T19:49:54.707Z,54.93
2022-10-13T19:52:23.210Z,50.20
2022-10-13T19:54:50.988Z,58.77
2022-10-13T19:57:17.734Z,55.43
2022-10-13T19:59:47.710Z,56.80
2022-10-13T20:02:14.801Z,58.17
2022-10-13T20:04:41.399Z,54.87
2022-10-13T20:07:08.673Z,51.60
2022-10-13T20:09:35.233Z,62.20
2022-10-13T20:12:01.835Z,66.30
2022-10-13T20:14:28.421Z,67.83
2022-10-13T20:16:57.748Z,65.47
2022-10-13T20:19:24.367Z,62.07
2022-10-13T20:21:52.111Z,62.80
2022-10-13T20:24:20.803Z,59.03
2022-10-13T20:26:47.462Z,65.10
2022-10-13T20:29:14.456Z,62.17
2022-10-13T20:31:41.499Z,64.43
2022-10-13T20:34:10.567Z,68.13
2022-10-13T20:36:39.121Z,80.17
2022-10-13T20:39:06.358Z,71.53
2022-10-13T20:41:33.571Z,71.47
2022-10-13T20:44:01.019Z,62.80
2022-10-13T20:46:27.956Z,77.17
2022-10-13T20:49:10.370Z,67.20
2022-10-13T20:51:38.329Z,68.97
2022-10-13T20:54:05.388Z,76.53
2022-10-13T20:56:31.929Z,80.37
2022-10-13T20:59:02.688Z,63.80
2022-10-13T21:01:29.422Z,81.83
2022-10-13T21:03:56.050Z,70.53
2022-10-13T21:06:23.868Z,69.13
2022-10-13T21:08:50.835Z,68.30
2022-10-13T21:11:19.733Z,69.67
2022-10-13T21:13:47.285Z,65.23
2022-10-13T21:16:16.009Z,66.17
2022-10-13T21:18:44.483Z,71.93
2022-10-13T21:21:11.734Z,79.00
2022-10-13T21:23:38.341Z,69.87
2022-10-13T21:26:07.007Z,69.00
2022-10-13T21:28:35.340Z,60.50
2022-10-13T21:31:03.402Z,69.67
2022-10-13T21:33:31.960Z,67.17
2022-10-13T21:36:01.567Z,75.60
2022-10-13T21:38:31.201Z,67.23
2022-10-13T21:40:57.780Z,69.60
2022-10-13T21:43:24.346Z,63.57
2022-10-13T21:45:50.929Z,69.07
2022-10-13T21:48:17.508Z,74.37
2022-10-13T21:50:45.120Z,76.30
2022-10-13T21:53:11.732Z,71.17
2022-10-13T21:55:38.290Z,68.77
2022-10-13T21:58:05.459Z,69.87
2022-10-13T22:00:32.722Z,70.17
2022-10-13T22:02:59.391Z,69.33
2022-10-13T22:05:26.038Z,73.83
2022-10-13T22:07:53.652Z,79.20
2022-10-13T22:10:20.190Z,83.13
2022-10-13T22:12:46.806Z,66.60
2022-10-13T22:15:13.352Z,76.67
2022-10-13T22:17:39.982Z,76.57
2022-10-13T22:20:07.156Z,72.83
2022-10-13T22:22:33.734Z,70.60
2022-10-13T22:25:01.339Z,66.20
2022-10-13T22:27:27.889Z,69.93
2022-10-13T22:29:54.461Z,62.20
2022-10-13T22:32:21.022Z,70.13
2022-10-13T22:34:47.558Z,72.17
2022-10-13T22:37:14.171Z,79.87
2022-10-13T22:39:40.838Z,67.70
2022-10-13T22:42:08.074Z,57.50
2022-10-13T22:44:34.662Z,66.50
2022-10-13T22:47:01.230Z,63.27
2022-10-13T22:49:27.983Z,65.23
2022-10-13T22:51:54.579Z,67.40
2022-10-13T22:54:21.146Z,63.67
2022-10-13T22:56:47.826Z,64.83
2022-10-13T22:59:15.405Z,66.93
2022-10-13T23:01:41.960Z,67.83
2022-10-13T23:04:08.562Z,66.80
2022-10-13T23:06:35.654Z,61.57
2022-10-13T23:09:03.640Z,64.30
2022-10-13T23:11:30.260Z,60.10
2022-10-13T23:13:56.799Z,67.27
2022-10-13T23:16:25.278Z,65.40
2022-10-13T23:18:52.619Z,67.43
2022-10-13T23:21:21.266Z,66.90
2022-10-13T23:23:47.904Z,69.30
2022-10-13T23:26:16.296Z,67.87
2022-10-13T23:28:43.461Z,76.90
2022-10-13T23:31:12.789Z,69.23
2022-10-13T23:33:40.717Z,69.87
2022-10-13T23:36:08.487Z,71.90
2022-10-13T23:38:35.218Z,77.97
2022-10-13T23:41:03.342Z,75.33
2022-10-13T23:43:29.981Z,65.80
2022-10-13T23:45:56.633Z,78.87
2022-10-13T23:48:23.275Z,67.17
2022-10-13T23:50:50.553Z,67.90
2022-10-13T23:53:17.112Z,77.77
2022-10-13T23:55:43.782Z,76.27
2022-10-13T23:58:10.770Z,66.57
